sensor_id;sensor_type;location;lat;lon;timestamp;pressure;altitude;pressure_sealevel;temperature;humidity
13604;BME280;24578;48.264;11.436;2022-11-23T00:02:24;94893.91;;;3.71;100.00
13604;BME280;24578;48.264;11.436;2022-11-23T00:05:25;94891.47;;;3.69;100.00
13604;BME280;24578;48.264;11.436;2022-11-23T00:08:25;94893.19;;;3.69;100.00
13604;BME280;24578;48.264;11.436;2022-11-23T00:11:26;94888.19;;;3.67;100.00
13604;BME280;24578;48.264;11.436;2022-11-23T00:14:26;94896.66;;;3.68;100.00
13604;BME280;24578;48.264;11.436;2022-11-23T00:17:26;94900.16;;;3.66;100.00
13604;BME280;24578;48.264;11.436;2022-11-23T00:20:26;94895.97;;;3.65;100.00
13604;BME280;24578;48.264;11.436;2022-11-23T00:23:27;94897.72;;;3.65;100.00
13604;BME280;24578;48.264;11.436;2022-11-23T00:26:27;94900.97;;;3.67;100.00
13604;BME280;24578;48.264;11.436;2022-11-23T00:29:27;94900.16;;;3.66;100.00
13604;BME280;24578;48.264;11.436;2022-11-23T00:32:28;94906.91;;;3.68;100.00
13604;BME280;24578;48.264;11.436;2022-11-23T00:35:28;94898.53;;;3.65;100.00
13604;BME280;24578;48.264;11.436;2022-11-23T00:38:28;94907.94;;;3.65;100.00
13604;BME280;24578;48.264;11.436;2022-11-23T00:41:29;94896.19;;;3.62;100.00
13604;BME280;24578;48.264;11.436;2022-11-23T00:44:29;94899.66;;;3.61;100.00
13604;BME280;24578;48.264;11.436;2022-11-23T00:47:29;94894.63;;;3.60;100.00
13604;BME280;24578;48.264;11.436;2022-11-23T00:50:29;94901.59;;;3.58;100.00
13604;BME280;24578;48.264;11.436;2022-11-23T00:53:29;94890.72;;;3.54;100.00
13604;BME280;24578;48.264;11.436;2022-11-23T00:56:30;94888.38;;;3.51;100.00
13604;BME280;24578;48.264;11.436;2022-11-23T00:59:30;94883.38;;;3.49;100.00
13604;BME280;24578;48.264;11.436;2022-11-23T01:02:32;94888.66;;;3.46;100.00
13604;BME280;24578;48.264;11.436;2022-11-23T01:05:35;94887.44;;;3.39;100.00
13604;BME280;24578;48.264;11.436;2022-11-23T01:08:35;94893.78;;;3.33;100.00
13604;BME280;24578;48.264;11.436;2022-11-23T01:11:36;94894.91;;;3.29;100.00
13604;BME280;24578;48.264;11.436;2022-11-23T01:14:36;94888.53;;;3.22;100.00
13604;BME280;24578;48.264;11.436;2022-11-23T01:17:36;94893.03;;;3.18;100.00
13604;BME280;24578;48.264;11.436;2022-11-23T01:20:36;94902.72;;;3.13;100.00
13604;BME280;24578;48.264;11.436;2022-11-23T01:23:37;94902.94;;;3.10;100.00
13604;BME280;24578;48.264;11.436;2022-11-23T01:26:37;94906.59;;;3.06;100.00
13604;BME280;24578;48.264;11.436;2022-11-23T01:29:37;94905.16;;;3.02;100.00
13604;BME280;24578;48.264;11.436;2022-11-23T01:32:38;94904.53;;;2.98;100.00
13604;BME280;24578;48.264;11.436;2022-11-23T01:35:38;94904.63;;;2.97;100.00
13604;BME280;24578;48.264;11.436;2022-11-23T01:38:38;94909.03;;;2.95;100.00
13604;BME280;24578;48.264;11.436;2022-11-23T01:41:39;94913.31;;;2.94;100.00
13604;BME280;24578;48.264;11.436;2022-11-23T01:44:40;94915.13;;;2.92;100.00
13604;BME280;24578;48.264;11.436;2022-11-23T01:47:40;94916.25;;;2.88;100.00
13604;BME280;24578;48.264;11.436;2022-11-23T01:50:41;94921.44;;;2.86;100.00
13604;BME280;24578;48.264;11.436;2022-11-23T01:53:42;94922.47;;;2.84;100.00
13604;BME280;24578;48.264;11.436;2022-11-23T01:56:49;94924.31;;;2.82;100.00
13604;BME280;24578;48.264;11.436;2022-11-23T01:59:52;94928.69;;;2.80;100.00
13604;BME280;24578;48.264;11.436;2022-11-23T02:02:54;94929.59;;;2.79;100.00
13604;BME280;24578;48.264;11.436;2022-11-23T02:05:57;94925.41;;;2.78;100.00
13604;BME280;24578;48.264;11.436;2022-11-23T02:09:00;94931.34;;;2.78;100.00
13604;BME280;24578;48.264;11.436;2022-11-23T02:12:00;94924.88;;;2.72;100.00
13604;BME280;24578;48.264;11.436;2022-11-23T02:15:01;94930.25;;;2.68;100.00
13604;BME280;24578;48.264;11.436;2022-11-23T02:18:02;94929.09;;;2.59;100.00
13604;BME280;24578;48.264;11.436;2022-11-23T02:21:03;94931.13;;;2.54;100.00
13604;BME280;24578;48.264;11.436;2022-11-23T02:24:08;94932.31;;;2.48;100.00
13604;BME280;24578;48.264;11.436;2022-11-23T02:27:12;94930.94;;;2.42;100.00
13604;BME280;24578;48.264;11.436;2022-11-23T02:30:12;94929.69;;;2.35;100.00
13604;BME280;24578;48.264;11.436;2022-11-23T02:33:12;94935.25;;;2.27;100.00
13604;BME280;24578;48.264;11.436;2022-11-23T02:39:33;94937.06;;;2.11;100.00
13604;BME280;24578;48.264;11.436;2022-11-23T02:42:35;94930.59;;;2.05;100.00
13604;BME280;24578;48.264;11.436;2022-11-23T02:45:38;94927.50;;;2.00;100.00
13604;BME280;24578;48.264;11.436;2022-11-23T02:48:40;94930.22;;;1.97;100.00
13604;BME280;24578;48.264;11.436;2022-11-23T02:51:40;94927.94;;;1.92;100.00
13604;BME280;24578;48.264;11.436;2022-11-23T02:54:40;94932.41;;;1.89;100.00
13604;BME280;24578;48.264;11.436;2022-11-23T02:57:41;94928.41;;;1.85;100.00
13604;BME280;24578;48.264;11.436;2022-11-23T03:00:41;94932.88;;;1.81;100.00
13604;BME280;24578;48.264;11.436;2022-11-23T03:03:41;94928.03;;;1.76;100.00
13604;BME280;24578;48.264;11.436;2022-11-23T03:06:41;94925.03;;;1.70;100.00
13604;BME280;24578;48.264;11.436;2022-11-23T03:09:41;94933.81;;;1.64;100.00
13604;BME280;24578;48.264;11.436;2022-11-23T03:12:42;94927.44;;;1.57;100.00
13604;BME280;24578;48.264;11.436;2022-11-23T03:15:42;94928.69;;;1.49;100.00
13604;BME280;24578;48.264;11.436;2022-11-23T03:18:42;94927.41;;;1.42;100.00
13604;BME280;24578;48.264;11.436;2022-11-23T03:21:42;94932.97;;;1.34;100.00
13604;BME280;24578;48.264;11.436;2022-11-23T03:24:42;94935.78;;;1.30;100.00
13604;BME280;24578;48.264;11.436;2022-11-23T03:27:43;94942.69;;;1.28;100.00
13604;BME280;24578;48.264;11.436;2022-11-23T03:30:43;94937.59;;;1.28;100.00
13604;BME280;24578;48.264;11.436;2022-11-23T03:33:43;94939.50;;;1.24;100.00
13604;BME280;24578;48.264;11.436;2022-11-23T03:36:43;94940.56;;;1.20;100.00
13604;BME280;24578;48.264;11.436;2022-11-23T03:39:44;94941.63;;;1.16;100.00
13604;BME280;24578;48.264;11.436;2022-11-23T03:42:44;94935.78;;;1.14;100.00
13604;BME280;24578;48.264;11.436;2022-11-23T03:45:44;94936.78;;;1.11;100.00
13604;BME280;24578;48.264;11.436;2022-11-23T03:48:44;94934.97;;;1.13;100.00
13604;BME280;24578;48.264;11.436;2022-11-23T03:51:45;94935.06;;;1.12;100.00
13604;BME280;24578;48.264;11.436;2022-11-23T03:54:45;94924.84;;;1.12;100.00
13604;BME280;24578;48.264;11.436;2022-11-23T03:57:49;94919.75;;;1.12;100.00
13604;BME280;24578;48.264;11.436;2022-11-23T04:00:49;94913.00;;;1.11;100.00
13604;BME280;24578;48.264;11.436;2022-11-23T04:03:49;94918.13;;;1.11;100.00
13604;BME280;24578;48.264;11.436;2022-11-23T04:06:51;94926.66;;;1.10;100.00
13604;BME280;24578;48.264;11.436;2022-11-23T04:09:52;94924.13;;;1.10;100.00
13604;BME280;24578;48.264;11.436;2022-11-23T04:12:52;94929.06;;;1.13;100.00
13604;BME280;24578;48.264;11.436;2022-11-23T04:15:52;94924.78;;;1.13;100.00
13604;BME280;24578;48.264;11.436;2022-11-23T04:18:52;94926.34;;;1.16;100.00
13604;BME280;24578;48.264;11.436;2022-11-23T04:21:53;94925.34;;;1.18;100.00
13604;BME280;24578;48.264;11.436;2022-11-23T04:24:53;94933.56;;;1.24;100.00
13604;BME280;24578;48.264;11.436;2022-11-23T04:27:54;94932.56;;;1.26;100.00
13604;BME280;24578;48.264;11.436;2022-11-23T04:30:54;94927.22;;;1.31;100.00
13604;BME280;24578;48.264;11.436;2022-11-23T04:33:54;94932.84;;;1.36;100.00
13604;BME280;24578;48.264;11.436;2022-11-23T04:36:56;94925.03;;;1.39;100.00
13604;BME280;24578;48.264;11.436;2022-11-23T04:39:56;94932.44;;;1.44;100.00
13604;BME280;24578;48.264;11.436;2022-11-23T04:42:57;94930.53;;;1.47;100.00
13604;BME280;24578;48.264;11.436;2022-11-23T04:45:57;94925.25;;;1.50;100.00
13604;BME280;24578;48.264;11.436;2022-11-23T04:48:57;94929.28;;;1.55;100.00
13604;BME280;24578;48.264;11.436;2022-11-23T04:51:57;94924.81;;;1.58;100.00
13604;BME280;24578;48.264;11.436;2022-11-23T04:54:58;94926.38;;;1.61;100.00
13604;BME280;24578;48.264;11.436;2022-11-23T04:57:58;94933.81;;;1.64;100.00
13604;BME280;24578;48.264;11.436;2022-11-23T05:00:58;94929.28;;;1.69;100.00
13604;BME280;24578;48.264;11.436;2022-11-23T05:03:58;94919.81;;;1.71;100.00
13604;BME280;24578;48.264;11.436;2022-11-23T05:06:58;94918.00;;;1.73;100.00
13604;BME280;24578;48.264;11.436;2022-11-23T05:09:59;94917.91;;;1.75;100.00
13604;BME280;24578;48.264;11.436;2022-11-23T05:12:59;94914.38;;;1.77;100.00
13604;BME280;24578;48.264;11.436;2022-11-23T05:15:59;94913.47;;;1.78;100.00
13604;BME280;24578;48.264;11.436;2022-11-23T05:18:59;94911.63;;;1.80;100.00
13604;BME280;24578;48.264;11.436;2022-11-23T05:21:59;94909.00;;;1.82;100.00
13604;BME280;24578;48.264;11.436;2022-11-23T05:25:00;94914.84;;;1.84;100.00
13604;BME280;24578;48.264;11.436;2022-11-23T05:28:00;94911.38;;;1.85;100.00
13604;BME280;24578;48.264;11.436;2022-11-23T05:31:00;94907.06;;;1.86;100.00
13604;BME280;24578;48.264;11.436;2022-11-23T05:34:00;94906.16;;;1.87;100.00
13604;BME280;24578;48.264;11.436;2022-11-23T05:37:01;94908.63;;;1.88;100.00
13604;BME280;24578;48.264;11.436;2022-11-23T05:40:01;94908.44;;;1.91;100.00
13604;BME280;24578;48.264;11.436;2022-11-23T05:43:01;94903.25;;;1.93;100.00
13604;BME280;24578;48.264;11.436;2022-11-23T05:46:02;94903.97;;;1.95;100.00
13604;BME280;24578;48.264;11.436;2022-11-23T05:49:02;94900.50;;;1.96;100.00
13604;BME280;24578;48.264;11.436;2022-11-23T05:52:02;94908.91;;;1.98;100.00
13604;BME280;24578;48.264;11.436;2022-11-23T05:55:03;94906.34;;;1.98;100.00
13604;BME280;24578;48.264;11.436;2022-11-23T05:58:03;94907.06;;;2.00;100.00
13604;BME280;24578;48.264;11.436;2022-11-23T06:01:03;94896.88;;;2.00;100.00
13604;BME280;24578;48.264;11.436;2022-11-23T06:04:04;94900.16;;;2.02;100.00
13604;BME280;24578;48.264;11.436;2022-11-23T06:07:05;94906.81;;;2.05;100.00
13604;BME280;24578;48.264;11.436;2022-11-23T06:10:05;94901.63;;;2.06;100.00
13604;BME280;24578;48.264;11.436;2022-11-23T06:13:06;94902.44;;;2.07;100.00
13604;BME280;24578;48.264;11.436;2022-11-23T06:16:06;94908.38;;;2.07;100.00
13604;BME280;24578;48.264;11.436;2022-11-23T06:19:06;94901.50;;;2.08;100.00
13604;BME280;24578;48.264;11.436;2022-11-23T06:22:07;94906.56;;;2.09;100.00
13604;BME280;24578;48.264;11.436;2022-11-23T06:25:07;94899.59;;;2.11;100.00
13604;BME280;24578;48.264;11.436;2022-11-23T06:28:08;94907.06;;;2.15;100.00
13604;BME280;24578;48.264;11.436;2022-11-23T06:31:08;94906.16;;;2.16;100.00
13604;BME280;24578;48.264;11.436;2022-11-23T06:34:10;94912.81;;;2.18;100.00
13604;BME280;24578;48.264;11.436;2022-11-23T06:37:10;94912.72;;;2.20;100.00
13604;BME280;24578;48.264;11.436;2022-11-23T06:40:10;94917.72;;;2.21;100.00
13604;BME280;24578;48.264;11.436;2022-11-23T06:43:11;94915.00;;;2.24;100.00
13604;BME280;24578;48.264;11.436;2022-11-23T06:46:11;94913.19;;;2.26;100.00
13604;BME280;24578;48.264;11.436;2022-11-23T06:49:11;94912.16;;;2.29;100.00
13604;BME280;24578;48.264;11.436;2022-11-23T06:52:11;94918.75;;;2.33;100.00
13604;BME280;24578;48.264;11.436;2022-11-23T06:55:13;94910.06;;;2.36;100.00
13604;BME280;24578;48.264;11.436;2022-11-23T06:58:13;94918.44;;;2.38;100.00
13604;BME280;24578;48.264;11.436;2022-11-23T07:01:13;94916.63;;;2.40;100.00
13604;BME280;24578;48.264;11.436;2022-11-23T07:04:13;94925.13;;;2.40;100.00
13604;BME280;24578;48.264;11.436;2022-11-23T07:07:13;94925.13;;;2.40;100.00
13604;BME280;24578;48.264;11.436;2022-11-23T07:10:13;94929.28;;;2.41;100.00
13604;BME280;24578;48.264;11.436;2022-11-23T07:13:14;94924.13;;;2.43;100.00
13604;BME280;24578;48.264;11.436;2022-11-23T07:16:14;94935.88;;;2.46;100.00
13604;BME280;24578;48.264;11.436;2022-11-23T07:19:14;94938.25;;;2.49;100.00
13604;BME280;24578;48.264;11.436;2022-11-23T07:22:15;94939.59;;;2.54;100.00
13604;BME280;24578;48.264;11.436;2022-11-23T07:25:15;94941.13;;;2.57;100.00
13604;BME280;24578;48.264;11.436;2022-11-23T07:28:17;94947.53;;;2.64;100.00
13604;BME280;24578;48.264;11.436;2022-11-23T07:31:18;94962.28;;;2.73;100.00
13604;BME280;24578;48.264;11.436;2022-11-23T07:34:18;94960.09;;;2.82;100.00
13604;BME280;24578;48.264;11.436;2022-11-23T07:37:18;94956.22;;;2.89;100.00
13604;BME280;24578;48.264;11.436;2022-11-23T07:40:18;94956.69;;;2.96;100.00
13604;BME280;24578;48.264;11.436;2022-11-23T07:43:19;94957.94;;;3.03;100.00
13604;BME280;24578;48.264;11.436;2022-11-23T07:46:20;94960.09;;;3.09;100.00
13604;BME280;24578;48.264;11.436;2022-11-23T07:49:21;94960.72;;;3.13;100.00
13604;BME280;24578;48.264;11.436;2022-11-23T07:52:21;94963.91;;;3.16;100.00
13604;BME280;24578;48.264;11.436;2022-11-23T07:55:22;94960.34;;;3.19;100.00
13604;BME280;24578;48.264;11.436;2022-11-23T07:58:22;94967.81;;;3.22;100.00
13604;BME280;24578;48.264;11.436;2022-11-23T08:01:22;94976.13;;;3.26;100.00
13604;BME280;24578;48.264;11.436;2022-11-23T08:04:22;94973.34;;;3.29;100.00
13604;BME280;24578;48.264;11.436;2022-11-23T08:07:23;94974.81;;;3.33;100.00
13604;BME280;24578;48.264;11.436;2022-11-23T08:10:23;94981.38;;;3.37;100.00
13604;BME280;24578;48.264;11.436;2022-11-23T08:13:23;94975.97;;;3.42;100.00
13604;BME280;24578;48.264;11.436;2022-11-23T08:16:24;94978.22;;;3.46;100.00
13604;BME280;24578;48.264;11.436;2022-11-23T08:19:24;94980.41;;;3.53;100.00
13604;BME280;24578;48.264;11.436;2022-11-23T08:22:24;94981.00;;;3.56;100.00
13604;BME280;24578;48.264;11.436;2022-11-23T08:25:26;94985.63;;;3.64;100.00
13604;BME280;24578;48.264;11.436;2022-11-23T08:28:27;94982.69;;;3.70;100.00
13604;BME280;24578;48.264;11.436;2022-11-23T08:31:27;94985.47;;;3.80;100.00
13604;BME280;24578;48.264;11.436;2022-11-23T08:34:27;94987.22;;;3.92;100.00
13604;BME280;24578;48.264;11.436;2022-11-23T08:37:27;94982.31;;;4.02;100.00
13604;BME280;24578;48.264;11.436;2022-11-23T08:40:28;94981.09;;;4.08;100.00
13604;BME280;24578;48.264;11.436;2022-11-23T08:43:28;94982.13;;;4.18;100.00
13604;BME280;24578;48.264;11.436;2022-11-23T08:46:28;94990.72;;;4.30;100.00
13604;BME280;24578;48.264;11.436;2022-11-23T08:49:28;94988.25;;;4.41;100.00
13604;BME280;24578;48.264;11.436;2022-11-23T08:52:29;94986.50;;;4.55;100.00
13604;BME280;24578;48.264;11.436;2022-11-23T08:55:29;94983.38;;;4.76;100.00
13604;BME280;24578;48.264;11.436;2022-11-23T08:58:29;94976.25;;;5.05;100.00
13604;BME280;24578;48.264;11.436;2022-11-23T09:01:29;94976.84;;;5.33;100.00
13604;BME280;24578;48.264;11.436;2022-11-23T09:04:29;94972.97;;;5.52;100.00
13604;BME280;24578;48.264;11.436;2022-11-23T09:07:30;94973.09;;;5.61;100.00
13604;BME280;24578;48.264;11.436;2022-11-23T09:10:31;94975.59;;;5.74;100.00
13604;BME280;24578;48.264;11.436;2022-11-23T09:13:33;94974.84;;;5.97;100.00
13604;BME280;24578;48.264;11.436;2022-11-23T09:16:33;94965.91;;;6.14;100.00
13604;BME280;24578;48.264;11.436;2022-11-23T09:19:34;94976.91;;;6.38;100.00
13604;BME280;24578;48.264;11.436;2022-11-23T09:22:34;94972.00;;;6.81;100.00
13604;BME280;24578;48.264;11.436;2022-11-23T09:25:34;94969.50;;;7.46;100.00
13604;BME280;24578;48.264;11.436;2022-11-23T09:28:34;94966.63;;;8.76;100.00
13604;BME280;24578;48.264;11.436;2022-11-23T09:31:35;94951.63;;;10.19;100.00
13604;BME280;24578;48.264;11.436;2022-11-23T09:34:35;94953.50;;;11.20;100.00
13604;BME280;24578;48.264;11.436;2022-11-23T09:37:35;94948.09;;;11.86;92.04
13604;BME280;24578;48.264;11.436;2022-11-23T09:40:36;94956.50;;;12.51;95.89
13604;BME280;24578;48.264;11.436;2022-11-23T09:44:13;94947.16;;;13.09;91.51
13604;BME280;24578;48.264;11.436;2022-11-23T09:56:20;94942.22;;;14.40;71.24
13604;BME280;24578;48.264;11.436;2022-11-23T09:59:27;94941.16;;;14.66;67.50
13604;BME280;24578;48.264;11.436;2022-11-23T10:02:33;94946.31;;;14.90;67.70
13604;BME280;24578;48.264;11.436;2022-11-23T10:05:36;94937.28;;;14.70;64.40
13604;BME280;24578;48.264;11.436;2022-11-23T10:08:40;94940.50;;;14.72;63.03
13604;BME280;24578;48.264;11.436;2022-11-23T10:14:58;94929.78;;;15.38;56.97
13604;BME280;24578;48.264;11.436;2022-11-23T10:24:15;94909.22;;;15.12;54.74
13604;BME280;24578;48.264;11.436;2022-11-23T10:27:19;94907.28;;;14.82;53.64
13604;BME280;24578;48.264;11.436;2022-11-23T10:30:20;94899.16;;;15.09;53.24
13604;BME280;24578;48.264;11.436;2022-11-23T10:33:25;94904.53;;;15.38;52.31
13604;BME280;24578;48.264;11.436;2022-11-23T10:36:28;94892.34;;;15.77;50.42
13604;BME280;24578;48.264;11.436;2022-11-23T10:39:28;94890.84;;;15.60;50.26
13604;BME280;24578;48.264;11.436;2022-11-23T10:42:46;94884.84;;;15.74;50.31
13604;BME280;24578;48.264;11.436;2022-11-23T10:45:49;94883.19;;;15.58;48.67
13604;BME280;24578;48.264;11.436;2022-11-23T10:48:49;94885.75;;;15.66;49.88
13604;BME280;24578;48.264;11.436;2022-11-23T10:54:54;94879.34;;;15.69;50.12
13604;BME280;24578;48.264;11.436;2022-11-23T10:57:55;94876.16;;;15.82;48.46
13604;BME280;24578;48.264;11.436;2022-11-23T11:04:34;94891.75;;;15.20;49.79
13604;BME280;24578;48.264;11.436;2022-11-23T11:07:35;94888.88;;;15.15;48.53
13604;BME280;24578;48.264;11.436;2022-11-23T11:13:43;94887.59;;;15.34;50.38
13604;BME280;24578;48.264;11.436;2022-11-23T11:16:48;94875.25;;;15.51;48.35
13604;BME280;24578;48.264;11.436;2022-11-23T11:19:48;94883.41;;;15.02;46.19
13604;BME280;24578;48.264;11.436;2022-11-23T11:22:49;94889.25;;;14.72;47.45
13604;BME280;24578;48.264;11.436;2022-11-23T11:25:49;94875.78;;;13.96;50.52
13604;BME280;24578;48.264;11.436;2022-11-23T11:28:52;94878.16;;;14.14;50.11
13604;BME280;24578;48.264;11.436;2022-11-23T11:31:55;94877.19;;;14.23;49.56
13604;BME280;24578;48.264;11.436;2022-11-23T11:38:03;94868.84;;;14.36;49.05
13604;BME280;24578;48.264;11.436;2022-11-23T11:41:07;94865.81;;;14.24;49.86
13604;BME280;24578;48.264;11.436;2022-11-23T11:44:19;94858.84;;;14.16;48.96
13604;BME280;24578;48.264;11.436;2022-11-23T11:53:22;94862.31;;;14.40;48.17
13604;BME280;24578;48.264;11.436;2022-11-23T11:56:28;94853.63;;;14.08;48.73
13604;BME280;24578;48.264;11.436;2022-11-23T12:02:34;94854.31;;;14.50;47.62
13604;BME280;24578;48.264;11.436;2022-11-23T12:05:37;94838.38;;;14.45;47.17
13604;BME280;24578;48.264;11.436;2022-11-23T12:08:42;94846.91;;;14.30;48.88
13604;BME280;24578;48.264;11.436;2022-11-23T12:11:45;94841.13;;;14.52;46.93
13604;BME280;24578;48.264;11.436;2022-11-23T12:14:45;94834.81;;;14.46;47.14
13604;BME280;24578;48.264;11.436;2022-11-23T12:18:05;94827.06;;;14.69;46.71
13604;BME280;24578;48.264;11.436;2022-11-23T12:21:21;94828.66;;;14.79;46.61
13604;BME280;24578;48.264;11.436;2022-11-23T12:37:19;94829.88;;;12.79;49.47
13604;BME280;24578;48.264;11.436;2022-11-23T12:40:35;94827.03;;;13.07;50.22
13604;BME280;24578;48.264;11.436;2022-11-23T12:43:45;94830.09;;;13.02;48.61
13604;BME280;24578;48.264;11.436;2022-11-23T12:47:12;94837.81;;;12.61;50.48
13604;BME280;24578;48.264;11.436;2022-11-23T12:56:32;94843.25;;;11.36;54.09
13604;BME280;24578;48.264;11.436;2022-11-23T13:18:26;94831.88;;;10.92;50.99
13604;BME280;24578;48.264;11.436;2022-11-23T13:21:35;94823.94;;;10.58;52.13
13604;BME280;24578;48.264;11.436;2022-11-23T13:24:37;94823.16;;;10.47;53.92
13604;BME280;24578;48.264;11.436;2022-11-23T13:30:44;94839.88;;;10.15;56.17
13604;BME280;24578;48.264;11.436;2022-11-23T13:33:45;94843.19;;;9.98;56.56
13604;BME280;24578;48.264;11.436;2022-11-23T13:36:57;94842.88;;;9.73;57.60
13604;BME280;24578;48.264;11.436;2022-11-23T13:39:59;94854.75;;;9.56;58.49
13604;BME280;24578;48.264;11.436;2022-11-23T13:43:02;94840.22;;;9.25;59.50
13604;BME280;24578;48.264;11.436;2022-11-23T13:49:27;94825.28;;;9.86;57.24
13604;BME280;24578;48.264;11.436;2022-11-23T13:52:27;94819.91;;;10.08;55.78
13604;BME280;24578;48.264;11.436;2022-11-23T13:55:32;94815.22;;;10.21;53.90
13604;BME280;24578;48.264;11.436;2022-11-23T13:58:35;94812.47;;;10.32;52.38
13604;BME280;24578;48.264;11.436;2022-11-23T14:08:13;94810.44;;;10.26;50.92
13604;BME280;24578;48.264;11.436;2022-11-23T14:11:16;94813.97;;;10.25;50.36
13604;BME280;24578;48.264;11.436;2022-11-23T14:14:20;94812.75;;;10.29;50.56
13604;BME280;24578;48.264;11.436;2022-11-23T14:23:59;94816.03;;;10.21;51.20
13604;BME280;24578;48.264;11.436;2022-11-23T14:27:09;94820.06;;;10.06;51.11
13604;BME280;24578;48.264;11.436;2022-11-23T14:31:02;94828.31;;;9.82;53.75
13604;BME280;24578;48.264;11.436;2022-11-23T14:43:11;94827.44;;;8.84;67.28
13604;BME280;24578;48.264;11.436;2022-11-23T14:46:14;94832.88;;;8.72;68.63
13604;BME280;24578;48.264;11.436;2022-11-23T14:49:14;94835.97;;;8.56;70.09
13604;BME280;24578;48.264;11.436;2022-11-23T14:52:19;94829.38;;;8.32;72.67
13604;BME280;24578;48.264;11.436;2022-11-23T14:55:21;94843.69;;;8.15;74.78
13604;BME280;24578;48.264;11.436;2022-11-23T14:58:22;94840.50;;;8.01;75.95
13604;BME280;24578;48.264;11.436;2022-11-23T15:01:24;94839.91;;;7.88;77.68
13604;BME280;24578;48.264;11.436;2022-11-23T15:04:36;94836.16;;;7.71;80.05
13604;BME280;24578;48.264;11.436;2022-11-23T15:10:58;94834.84;;;7.34;84.51
13604;BME280;24578;48.264;11.436;2022-11-23T15:14:00;94841.25;;;7.19;86.83
13604;BME280;24578;48.264;11.436;2022-11-23T15:17:13;94835.03;;;7.00;88.85
13604;BME280;24578;48.264;11.436;2022-11-23T15:20:14;94830.91;;;6.76;91.55
13604;BME280;24578;48.264;11.436;2022-11-23T15:23:21;94836.91;;;6.54;94.72
13604;BME280;24578;48.264;11.436;2022-11-23T15:26:23;94834.50;;;6.30;96.63
13604;BME280;24578;48.264;11.436;2022-11-23T15:29:34;94831.72;;;6.10;99.23
13604;BME280;24578;48.264;11.436;2022-11-23T15:32:35;94841.84;;;5.89;100.00
13604;BME280;24578;48.264;11.436;2022-11-23T15:35:36;94842.19;;;5.73;100.00
13604;BME280;24578;48.264;11.436;2022-11-23T15:38:36;94846.97;;;5.66;100.00
13604;BME280;24578;48.264;11.436;2022-11-23T15:41:37;94842.31;;;5.83;100.00
13604;BME280;24578;48.264;11.436;2022-11-23T15:44:38;94841.16;;;5.87;100.00
13604;BME280;24578;48.264;11.436;2022-11-23T15:47:38;94838.22;;;5.80;100.00
13604;BME280;24578;48.264;11.436;2022-11-23T15:53:46;94837.94;;;5.38;100.00
13604;BME280;24578;48.264;11.436;2022-11-23T15:56:48;94833.78;;;5.12;100.00
13604;BME280;24578;48.264;11.436;2022-11-23T15:59:52;94841.06;;;4.94;100.00
13604;BME280;24578;48.264;11.436;2022-11-23T16:03:19;94829.56;;;4.76;100.00
13604;BME280;24578;48.264;11.436;2022-11-23T16:06:15;94838.94;;;4.64;100.00
13604;BME280;24578;48.264;11.436;2022-11-23T16:12:45;94841.09;;;4.33;100.00
13604;BME280;24578;48.264;11.436;2022-11-23T16:15:46;94854.75;;;4.20;100.00
13604;BME280;24578;48.264;11.436;2022-11-23T16:18:57;94854.69;;;4.09;100.00
13604;BME280;24578;48.264;11.436;2022-11-23T16:22:01;94856.00;;;4.02;100.00
13604;BME280;24578;48.264;11.436;2022-11-23T16:28:13;94857.25;;;3.83;100.00
13604;BME280;24578;48.264;11.436;2022-11-23T16:31:25;94857.38;;;3.81;100.00
13604;BME280;24578;48.264;11.436;2022-11-23T16:34:25;94854.41;;;3.75;100.00
13604;BME280;24578;48.264;11.436;2022-11-23T16:37:26;94854.59;;;3.72;100.00
13604;BME280;24578;48.264;11.436;2022-11-23T16:40:27;94863.31;;;3.69;100.00
13604;BME280;24578;48.264;11.436;2022-11-23T16:43:28;94866.38;;;3.74;100.00
13604;BME280;24578;48.264;11.436;2022-11-23T16:46:28;94867.19;;;3.75;100.00
13604;BME280;24578;48.264;11.436;2022-11-23T16:49:29;94862.47;;;3.69;100.00
13604;BME280;24578;48.264;11.436;2022-11-23T16:52:31;94865.47;;;3.62;100.00
13604;BME280;24578;48.264;11.436;2022-11-23T16:55:31;94865.66;;;3.59;100.00
13604;BME280;24578;48.264;11.436;2022-11-23T16:58:32;94863.81;;;3.61;100.00
13604;BME280;24578;48.264;11.436;2022-11-23T17:01:33;94860.56;;;3.59;100.00
13604;BME280;24578;48.264;11.436;2022-11-23T17:04:36;94854.50;;;3.47;100.00
13604;BME280;24578;48.264;11.436;2022-11-23T17:07:36;94854.28;;;3.38;100.00
13604;BME280;24578;48.264;11.436;2022-11-23T17:10:37;94859.16;;;3.28;100.00
13604;BME280;24578;48.264;11.436;2022-11-23T17:13:38;94863.25;;;3.17;100.00
13604;BME280;24578;48.264;11.436;2022-11-23T17:16:38;94870.88;;;3.04;100.00
13604;BME280;24578;48.264;11.436;2022-11-23T17:19:38;94865.66;;;2.93;100.00
13604;BME280;24578;48.264;11.436;2022-11-23T17:22:39;94863.78;;;2.82;100.00
13604;BME280;24578;48.264;11.436;2022-11-23T17:25:39;94860.16;;;2.72;100.00
13604;BME280;24578;48.264;11.436;2022-11-23T17:28:39;94860.84;;;2.61;100.00
13604;BME280;24578;48.264;11.436;2022-11-23T17:31:40;94870.44;;;2.57;100.00
13604;BME280;24578;48.264;11.436;2022-11-23T17:34:42;94864.97;;;2.49;100.00
13604;BME280;24578;48.264;11.436;2022-11-23T17:37:42;94867.19;;;2.41;100.00
13604;BME280;24578;48.264;11.436;2022-11-23T17:40:44;94874.59;;;2.31;100.00
13604;BME280;24578;48.264;11.436;2022-11-23T17:43:44;94881.00;;;2.24;100.00
13604;BME280;24578;48.264;11.436;2022-11-23T17:46:45;94888.22;;;2.17;100.00
13604;BME280;24578;48.264;11.436;2022-11-23T17:49:45;94892.94;;;2.09;100.00
13604;BME280;24578;48.264;11.436;2022-11-23T17:52:46;94889.13;;;2.02;100.00
13604;BME280;24578;48.264;11.436;2022-11-23T17:55:46;94892.16;;;1.94;100.00